sensor_id;sensor_type;location;lat;lon;timestamp;pressure;altitude;pressure_sealevel;temperature;humidity
33151;BME280;19508;42.578;23.416;2023-02-21T00:08:19;94048.06;;;3.72;65.00
33151;BME280;19508;42.578;23.416;2023-02-21T00:11:03;94038.03;;;3.47;65.73
33151;BME280;19508;42.578;23.416;2023-02-21T00:13:47;94049.91;;;3.38;65.78
33151;BME280;19508;42.578;23.416;2023-02-21T00:16:31;94044.34;;;3.33;66.10
33151;BME280;19508;42.578;23.416;2023-02-21T00:19:15;94045.53;;;2.97;66.73
33151;BME280;19508;42.578;23.416;2023-02-21T00:21:58;94045.53;;;2.84;67.56
33151;BME280;19508;42.578;23.416;2023-02-21T00:24:42;94048.38;;;2.76;68.38
33151;BME280;19508;42.578;23.416;2023-02-21T00:27:26;94071.28;;;2.77;68.32
33151;BME280;19508;42.578;23.416;2023-02-21T00:30:11;94045.06;;;2.67;69.09
33151;BME280;19508;42.578;23.416;2023-02-21T00:32:57;94050.00;;;2.77;68.84
33151;BME280;19508;42.578;23.416;2023-02-21T00:35:41;94034.22;;;2.69;69.16
33151;BME280;19508;42.578;23.416;2023-02-21T00:38:25;94029.94;;;2.68;69.56
33151;BME280;19508;42.578;23.416;2023-02-21T00:41:09;94018.84;;;2.58;70.10
33151;BME280;19508;42.578;23.416;2023-02-21T00:43:53;94020.94;;;2.75;69.24
33151;BME280;19508;42.578;23.416;2023-02-21T00:46:36;94004.19;;;2.75;69.50
33151;BME280;19508;42.578;23.416;2023-02-21T00:49:20;94027.53;;;2.86;69.50
33151;BME280;19508;42.578;23.416;2023-02-21T00:52:05;94012.81;;;2.97;68.94
33151;BME280;19508;42.578;23.416;2023-02-21T00:54:48;94019.13;;;2.82;69.51
33151;BME280;19508;42.578;23.416;2023-02-21T00:57:32;94010.13;;;2.90;69.17
33151;BME280;19508;42.578;23.416;2023-02-21T01:00:19;94008.94;;;2.99;69.02
33151;BME280;19508;42.578;23.416;2023-02-21T01:03:03;94000.69;;;2.74;69.76
33151;BME280;19508;42.578;23.416;2023-02-21T01:05:47;94005.44;;;3.05;68.83
33151;BME280;19508;42.578;23.416;2023-02-21T01:08:31;94003.00;;;3.04;68.75
33151;BME280;19508;42.578;23.416;2023-02-21T01:11:20;93984.56;;;3.16;68.58
33151;BME280;19508;42.578;23.416;2023-02-21T01:14:05;93982.53;;;3.11;68.57
33151;BME280;19508;42.578;23.416;2023-02-21T01:16:50;93988.25;;;3.01;69.08
33151;BME280;19508;42.578;23.416;2023-02-21T01:19:34;93984.78;;;3.21;68.55
33151;BME280;19508;42.578;23.416;2023-02-21T01:22:18;93978.84;;;3.12;68.85
33151;BME280;19508;42.578;23.416;2023-02-21T01:25:03;93965.56;;;3.19;68.59
33151;BME280;19508;42.578;23.416;2023-02-21T01:27:46;93953.06;;;3.32;68.42
33151;BME280;19508;42.578;23.416;2023-02-21T01:30:30;93953.47;;;3.36;68.41
33151;BME280;19508;42.578;23.416;2023-02-21T01:33:14;93953.47;;;3.43;67.76
33151;BME280;19508;42.578;23.416;2023-02-21T01:35:58;93958.78;;;3.49;67.90
33151;BME280;19508;42.578;23.416;2023-02-21T01:38:42;93952.22;;;3.38;68.35
33151;BME280;19508;42.578;23.416;2023-02-21T01:41:26;93957.16;;;3.22;68.55
33151;BME280;19508;42.578;23.416;2023-02-21T01:44:34;93954.91;;;3.32;68.82
33151;BME280;19508;42.578;23.416;2023-02-21T01:47:19;93959.19;;;3.06;69.29
33151;BME280;19508;42.578;23.416;2023-02-21T01:50:25;93951.84;;;3.35;68.66
33151;BME280;19508;42.578;23.416;2023-02-21T01:53:14;93960.44;;;3.10;68.76
33151;BME280;19508;42.578;23.416;2023-02-21T01:56:00;93957.75;;;3.24;68.82
33151;BME280;19508;42.578;23.416;2023-02-21T01:58:46;93933.84;;;3.10;69.49
33151;BME280;19508;42.578;23.416;2023-02-21T02:01:40;93938.94;;;3.19;69.91
33151;BME280;19508;42.578;23.416;2023-02-21T02:04:27;93935.03;;;3.41;68.71
33151;BME280;19508;42.578;23.416;2023-02-21T02:07:12;93923.38;;;3.29;69.02
33151;BME280;19508;42.578;23.416;2023-02-21T02:09:56;93938.94;;;3.32;69.01
33151;BME280;19508;42.578;23.416;2023-02-21T02:37:30;93906.47;;;3.88;66.69
33151;BME280;19508;42.578;23.416;2023-02-21T02:40:25;93921.41;;;3.89;67.02
33151;BME280;19508;42.578;23.416;2023-02-21T02:43:14;93900.38;;;3.67;67.52
33151;BME280;19508;42.578;23.416;2023-02-21T02:45:46;93900.19;;;3.69;67.15
33151;BME280;19508;42.578;23.416;2023-02-21T02:48:24;93914.88;;;3.85;67.21
33151;BME280;19508;42.578;23.416;2023-02-21T02:50:52;93902.03;;;3.62;67.36
33151;BME280;19508;42.578;23.416;2023-02-21T02:53:24;93903.66;;;3.70;67.47
33151;BME280;19508;42.578;23.416;2023-02-21T02:55:53;93897.66;;;3.81;67.05
33151;BME280;19508;42.578;23.416;2023-02-21T02:58:21;93895.44;;;3.71;67.04
33151;BME280;19508;42.578;23.416;2023-02-21T03:01:03;93900.19;;;3.62;67.77
33151;BME280;19508;42.578;23.416;2023-02-21T03:17:40;93916.63;;;3.26;69.22
33151;BME280;19508;42.578;23.416;2023-02-21T03:20:08;93922.97;;;3.19;69.61
33151;BME280;19508;42.578;23.416;2023-02-21T03:22:35;93922.38;;;3.03;69.44
33151;BME280;19508;42.578;23.416;2023-02-21T03:25:01;93919.91;;;3.15;69.50
33151;BME280;19508;42.578;23.416;2023-02-21T03:27:28;93921.53;;;3.23;68.96
33151;BME280;19508;42.578;23.416;2023-02-21T03:29:57;93921.53;;;3.23;69.05
33151;BME280;19508;42.578;23.416;2023-02-21T03:32:32;93910.50;;;3.26;69.14
33151;BME280;19508;42.578;23.416;2023-02-21T03:34:59;93909.69;;;2.92;69.72
33151;BME280;19508;42.578;23.416;2023-02-21T03:37:38;93904.78;;;3.09;69.34
33151;BME280;19508;42.578;23.416;2023-02-21T03:40:11;93908.47;;;3.08;69.05
33151;BME280;19508;42.578;23.416;2023-02-21T03:42:37;93903.13;;;3.01;69.62
33151;BME280;19508;42.578;23.416;2023-02-21T03:45:03;93904.56;;;3.10;69.19
33151;BME280;19508;42.578;23.416;2023-02-21T03:47:28;93889.22;;;2.93;69.39
33151;BME280;19508;42.578;23.416;2023-02-21T03:49:54;93901.31;;;3.02;69.16
33151;BME280;19508;42.578;23.416;2023-02-21T03:52:19;93905.19;;;2.93;69.74
33151;BME280;19508;42.578;23.416;2023-02-21T03:54:45;93899.25;;;2.97;69.62
33151;BME280;19508;42.578;23.416;2023-02-21T03:57:10;93895.75;;;3.03;69.21
33151;BME280;19508;42.578;23.416;2023-02-21T03:59:35;93900.88;;;2.98;69.09
33151;BME280;19508;42.578;23.416;2023-02-21T04:02:01;93898.63;;;2.95;69.61
33151;BME280;19508;42.578;23.416;2023-02-21T04:04:26;93898.22;;;2.85;69.90
33151;BME280;19508;42.578;23.416;2023-02-21T04:06:52;93907.19;;;2.64;71.08
33151;BME280;19508;42.578;23.416;2023-02-21T04:09:17;93912.97;;;2.74;70.92
33151;BME280;19508;42.578;23.416;2023-02-21T04:11:44;93925.63;;;2.66;70.70
33151;BME280;19508;42.578;23.416;2023-02-21T04:14:10;93931.34;;;2.69;70.88
33151;BME280;19508;42.578;23.416;2023-02-21T04:16:35;93927.69;;;2.77;70.40
33151;BME280;19508;42.578;23.416;2023-02-21T04:19:01;93932.97;;;2.64;70.69
33151;BME280;19508;42.578;23.416;2023-02-21T04:21:26;93935.81;;;2.49;71.19
33151;BME280;19508;42.578;23.416;2023-02-21T04:23:52;93932.97;;;2.57;71.13
33151;BME280;19508;42.578;23.416;2023-02-21T04:26:17;93916.97;;;2.37;72.00
33151;BME280;19508;42.578;23.416;2023-02-21T04:28:42;93948.09;;;2.50;72.13
33151;BME280;19508;42.578;23.416;2023-02-21T04:31:08;93933.38;;;2.61;72.08
33151;BME280;19508;42.578;23.416;2023-02-21T04:33:34;93943.03;;;2.88;70.93
33151;BME280;19508;42.578;23.416;2023-02-21T04:35:59;93944.88;;;2.94;70.67
33151;BME280;19508;42.578;23.416;2023-02-21T04:38:25;93955.09;;;2.97;70.27
33151;BME280;19508;42.578;23.416;2023-02-21T04:40:50;93956.72;;;2.85;70.10
33151;BME280;19508;42.578;23.416;2023-02-21T04:43:22;93963.69;;;2.86;69.92
33151;BME280;19508;42.578;23.416;2023-02-21T04:45:47;93954.03;;;2.72;70.50
33151;BME280;19508;42.578;23.416;2023-02-21T04:48:12;93938.69;;;2.61;70.06
33151;BME280;19508;42.578;23.416;2023-02-21T04:50:38;93961.56;;;2.55;70.92
33151;BME280;19508;42.578;23.416;2023-02-21T04:53:03;93949.31;;;2.54;70.85
33151;BME280;19508;42.578;23.416;2023-02-21T04:55:28;93946.78;;;2.26;71.27
33151;BME280;19508;42.578;23.416;2023-02-21T04:57:54;93947.19;;;2.23;71.57
33151;BME280;19508;42.578;23.416;2023-02-21T05:00:19;93942.69;;;2.23;71.76
33151;BME280;19508;42.578;23.416;2023-02-21T05:02:45;93945.16;;;2.25;72.08
33151;BME280;19508;42.578;23.416;2023-02-21T05:05:11;93944.34;;;2.24;72.08
33151;BME280;19508;42.578;23.416;2023-02-21T05:07:36;93926.53;;;2.18;72.04
33151;BME280;19508;42.578;23.416;2023-02-21T05:10:02;93932.91;;;2.37;71.56
33151;BME280;19508;42.578;23.416;2023-02-21T05:12:30;93916.75;;;2.25;71.49
33151;BME280;19508;42.578;23.416;2023-02-21T05:14:56;93914.84;;;2.13;72.59
33151;BME280;19508;42.578;23.416;2023-02-21T05:17:21;93916.72;;;2.19;72.16
33151;BME280;19508;42.578;23.416;2023-02-21T05:19:47;93908.34;;;2.15;72.41
33151;BME280;19508;42.578;23.416;2023-02-21T05:22:12;93897.88;;;2.07;73.13
33151;BME280;19508;42.578;23.416;2023-02-21T05:24:41;93911.84;;;2.29;72.66
33151;BME280;19508;42.578;23.416;2023-02-21T05:27:10;93901.03;;;2.37;72.12
33151;BME280;19508;42.578;23.416;2023-02-21T05:29:49;93898.59;;;2.55;72.39
33151;BME280;19508;42.578;23.416;2023-02-21T05:32:16;93908.41;;;2.48;71.47
33151;BME280;19508;42.578;23.416;2023-02-21T05:34:42;93900.06;;;2.58;71.31
33151;BME280;19508;42.578;23.416;2023-02-21T05:37:15;93910.44;;;2.40;71.61
33151;BME280;19508;42.578;23.416;2023-02-21T05:39:42;93907.78;;;2.46;72.22
33151;BME280;19508;42.578;23.416;2023-02-21T05:42:07;93918.25;;;2.68;71.63
33151;BME280;19508;42.578;23.416;2023-02-21T05:44:33;93921.31;;;2.71;71.39
33151;BME280;19508;42.578;23.416;2023-02-21T05:46:59;93919.50;;;2.78;71.19
33151;BME280;19508;42.578;23.416;2023-02-21T05:49:24;93915.00;;;2.79;70.79
33151;BME280;19508;42.578;23.416;2023-02-21T05:51:50;93912.97;;;2.74;70.63
33151;BME280;19508;42.578;23.416;2023-02-21T05:54:18;93920.91;;;2.81;70.50
33151;BME280;19508;42.578;23.416;2023-02-21T05:56:45;93903.31;;;2.53;71.44
33151;BME280;19508;42.578;23.416;2023-02-21T05:59:12;93905.78;;;2.75;72.04
33151;BME280;19508;42.578;23.416;2023-02-21T06:01:37;93923.19;;;2.97;71.19
33151;BME280;19508;42.578;23.416;2023-02-21T06:04:04;93906.59;;;3.28;70.40
33151;BME280;19508;42.578;23.416;2023-02-21T06:06:34;93930.91;;;3.58;69.45
33151;BME280;19508;42.578;23.416;2023-02-21T06:09:00;93919.91;;;4.06;68.31
33151;BME280;19508;42.578;23.416;2023-02-21T06:11:29;93937.28;;;4.60;66.89
33151;BME280;19508;42.578;23.416;2023-02-21T06:13:58;93917.59;;;4.93;65.32
33151;BME280;19508;42.578;23.416;2023-02-21T06:16:25;93930.59;;;5.14;64.22
33151;BME280;19508;42.578;23.416;2023-02-21T06:18:55;93933.81;;;5.66;63.34
33151;BME280;19508;42.578;23.416;2023-02-21T06:21:21;93935.97;;;6.01;61.84
33151;BME280;19508;42.578;23.416;2023-02-21T06:23:47;93932.09;;;6.15;60.31
33151;BME280;19508;42.578;23.416;2023-02-21T06:26:13;93923.19;;;6.21;59.72
33151;BME280;19508;42.578;23.416;2023-02-21T06:28:39;93934.88;;;6.87;58.82
33151;BME280;19508;42.578;23.416;2023-02-21T06:31:05;93933.72;;;7.36;57.37
33151;BME280;19508;42.578;23.416;2023-02-21T06:33:31;93934.44;;;7.67;55.34
33151;BME280;19508;42.578;23.416;2023-02-21T06:35:56;93924.53;;;8.14;54.62
33151;BME280;19508;42.578;23.416;2023-02-21T06:38:22;93949.50;;;8.66;53.91
33151;BME280;19508;42.578;23.416;2023-02-21T06:40:47;93947.00;;;8.48;52.79
33151;BME280;19508;42.578;23.416;2023-02-21T06:43:13;93958.50;;;8.60;52.84
33151;BME280;19508;42.578;23.416;2023-02-21T06:45:38;93946.97;;;8.88;51.65
33151;BME280;19508;42.578;23.416;2023-02-21T06:48:07;93942.97;;;9.19;50.81
33151;BME280;19508;42.578;23.416;2023-02-21T06:50:32;93953.22;;;9.51;50.30
33151;BME280;19508;42.578;23.416;2023-02-21T06:52:59;93950.59;;;9.56;49.56
33151;BME280;19508;42.578;23.416;2023-02-21T06:55:24;93943.00;;;9.86;48.62
33151;BME280;19508;42.578;23.416;2023-02-21T06:57:50;93947.88;;;10.23;47.01
33151;BME280;19508;42.578;23.416;2023-02-21T07:00:16;93937.28;;;10.55;46.34
33151;BME280;19508;42.578;23.416;2023-02-21T07:02:42;93939.66;;;10.52;47.08
33151;BME280;19508;42.578;23.416;2023-02-21T07:05:08;93941.88;;;11.04;46.95
33151;BME280;19508;42.578;23.416;2023-02-21T07:07:34;93920.00;;;11.27;44.90
33151;BME280;19508;42.578;23.416;2023-02-21T07:09:59;93930.06;;;11.64;44.26
33151;BME280;19508;42.578;23.416;2023-02-21T07:12:25;93928.97;;;11.92;43.36
33151;BME280;19508;42.578;23.416;2023-02-21T07:14:52;93924.91;;;11.94;42.77
33151;BME280;19508;42.578;23.416;2023-02-21T07:17:18;93913.19;;;12.16;42.41
33151;BME280;19508;42.578;23.416;2023-02-21T07:19:43;93923.50;;;12.24;42.44
33151;BME280;19508;42.578;23.416;2023-02-21T07:22:09;93918.69;;;12.36;42.34
33151;BME280;19508;42.578;23.416;2023-02-21T07:24:34;93917.41;;;13.16;40.92
33151;BME280;19508;42.578;23.416;2023-02-21T07:27:00;93915.63;;;13.68;39.67
33151;BME280;19508;42.578;23.416;2023-02-21T07:29:26;93921.59;;;12.77;40.82
33151;BME280;19508;42.578;23.416;2023-02-21T07:31:51;93929.19;;;12.85;41.79
33151;BME280;19508;42.578;23.416;2023-02-21T07:34:17;93924.41;;;13.02;41.50
33151;BME280;19508;42.578;23.416;2023-02-21T07:36:44;93908.13;;;12.29;41.79
33151;BME280;19508;42.578;23.416;2023-02-21T07:39:09;93915.66;;;12.75;41.06
33151;BME280;19508;42.578;23.416;2023-02-21T07:41:35;93908.44;;;13.06;41.10
33151;BME280;19508;42.578;23.416;2023-02-21T07:44:00;93901.78;;;13.39;40.01
33151;BME280;19508;42.578;23.416;2023-02-21T07:46:27;93894.78;;;13.89;39.05
33151;BME280;19508;42.578;23.416;2023-02-21T07:48:53;93891.75;;;14.21;40.13
33151;BME280;19508;42.578;23.416;2023-02-21T07:51:18;93886.09;;;14.07;38.39
33151;BME280;19508;42.578;23.416;2023-02-21T07:53:44;93879.81;;;14.47;37.53
33151;BME280;19508;42.578;23.416;2023-02-21T07:56:10;93887.91;;;14.42;38.02
33151;BME280;19508;42.578;23.416;2023-02-21T07:58:35;93898.59;;;13.67;38.46
33151;BME280;19508;42.578;23.416;2023-02-21T08:01:02;93892.31;;;13.67;39.35
33151;BME280;19508;42.578;23.416;2023-02-21T08:03:28;93885.00;;;13.93;39.32
33151;BME280;19508;42.578;23.416;2023-02-21T08:05:54;93892.50;;;14.42;38.56
33151;BME280;19508;42.578;23.416;2023-02-21T08:08:19;93880.16;;;13.39;40.12
33151;BME280;19508;42.578;23.416;2023-02-21T08:10:45;93892.88;;;13.48;39.93
33151;BME280;19508;42.578;23.416;2023-02-21T08:13:10;93892.06;;;13.94;38.99
33151;BME280;19508;42.578;23.416;2023-02-21T08:15:36;93881.78;;;13.70;39.27
33151;BME280;19508;42.578;23.416;2023-02-21T08:18:01;93890.44;;;13.72;39.24
33151;BME280;19508;42.578;23.416;2023-02-21T08:20:26;93888.28;;;13.79;39.91
33151;BME280;19508;42.578;23.416;2023-02-21T08:22:52;93890.63;;;14.27;38.39
33151;BME280;19508;42.578;23.416;2023-02-21T08:25:17;93882.50;;;14.32;38.23
33151;BME280;19508;42.578;23.416;2023-02-21T08:27:43;93887.97;;;14.06;38.74
33151;BME280;19508;42.578;23.416;2023-02-21T08:30:11;93877.47;;;13.79;39.21
33151;BME280;19508;42.578;23.416;2023-02-21T08:32:38;93876.94;;;13.42;40.18
33151;BME280;19508;42.578;23.416;2023-02-21T08:35:04;93874.72;;;14.00;39.52
33151;BME280;19508;42.578;23.416;2023-02-21T08:37:31;93868.16;;;14.26;38.78
33151;BME280;19508;42.578;23.416;2023-02-21T08:40:00;93881.41;;;14.38;38.60
33151;BME280;19508;42.578;23.416;2023-02-21T08:42:26;93869.88;;;13.87;39.04
33151;BME280;19508;42.578;23.416;2023-02-21T08:44:51;93861.75;;;13.87;39.34
33151;BME280;19508;42.578;23.416;2023-02-21T08:47:17;93864.88;;;14.50;38.40
33151;BME280;19508;42.578;23.416;2023-02-21T08:49:46;93863.84;;;14.25;38.98
33151;BME280;19508;42.578;23.416;2023-02-21T08:52:13;93865.69;;;14.55;38.15
33151;BME280;19508;42.578;23.416;2023-02-21T08:54:41;93863.06;;;15.78;36.79
33151;BME280;19508;42.578;23.416;2023-02-21T08:57:07;93861.44;;;15.77;36.38
33151;BME280;19508;42.578;23.416;2023-02-21T08:59:32;93858.84;;;15.62;37.73
33151;BME280;19508;42.578;23.416;2023-02-21T09:01:59;93855.88;;;15.58;36.19
33151;BME280;19508;42.578;23.416;2023-02-21T09:04:25;93868.47;;;15.83;37.09
33151;BME280;19508;42.578;23.416;2023-02-21T09:06:52;93858.06;;;16.72;34.65
33151;BME280;19508;42.578;23.416;2023-02-21T09:09:18;93856.72;;;16.70;33.10
33151;BME280;19508;42.578;23.416;2023-02-21T09:11:44;93863.78;;;17.13;33.46
33151;BME280;19508;42.578;23.416;2023-02-21T09:14:13;93850.53;;;17.26;32.28
33151;BME280;19508;42.578;23.416;2023-02-21T09:16:38;93860.81;;;16.91;33.17
33151;BME280;19508;42.578;23.416;2023-02-21T09:19:04;93861.25;;;16.98;34.80
33151;BME280;19508;42.578;23.416;2023-02-21T09:21:31;93858.69;;;16.88;33.66
33151;BME280;19508;42.578;23.416;2023-02-21T09:23:57;93849.50;;;17.59;33.67
33151;BME280;19508;42.578;23.416;2023-02-21T09:26:27;93845.66;;;17.60;32.04
33151;BME280;19508;42.578;23.416;2023-02-21T09:28:56;93840.25;;;18.12;30.91
33151;BME280;19508;42.578;23.416;2023-02-21T09:31:21;93836.88;;;17.31;32.77
33151;BME280;19508;42.578;23.416;2023-02-21T09:33:47;93837.34;;;17.89;31.44
33151;BME280;19508;42.578;23.416;2023-02-21T09:36:12;93839.31;;;18.16;31.26
33151;BME280;19508;42.578;23.416;2023-02-21T09:38:38;93835.81;;;18.29;30.61
33151;BME280;19508;42.578;23.416;2023-02-21T09:41:08;93825.22;;;18.97;30.10
33151;BME280;19508;42.578;23.416;2023-02-21T09:43:42;93824.13;;;18.56;30.91
33151;BME280;19508;42.578;23.416;2023-02-21T09:46:33;93822.81;;;17.94;31.27
33151;BME280;19508;42.578;23.416;2023-02-21T09:49:00;93819.50;;;18.71;31.11
33151;BME280;19508;42.578;23.416;2023-02-21T09:51:27;93828.13;;;20.09;28.46
33151;BME280;19508;42.578;23.416;2023-02-21T09:53:54;93817.97;;;20.63;28.28
33151;BME280;19508;42.578;23.416;2023-02-21T09:56:28;93813.38;;;20.49;27.37
33151;BME280;19508;42.578;23.416;2023-02-21T09:58:56;93805.06;;;20.54;28.73
33151;BME280;19508;42.578;23.416;2023-02-21T10:06:48;93799.19;;;20.78;26.25
33151;BME280;19508;42.578;23.416;2023-02-21T10:14:42;93775.56;;;22.12;23.20
33151;BME280;19508;42.578;23.416;2023-02-21T10:17:31;93772.88;;;22.50;22.57
33151;BME280;19508;42.578;23.416;2023-02-21T10:20:25;93768.72;;;23.12;22.35
33151;BME280;19508;42.578;23.416;2023-02-21T10:22:52;93763.97;;;22.53;22.51
33151;BME280;19508;42.578;23.416;2023-02-21T10:25:38;93759.84;;;22.39;22.74
33151;BME280;19508;42.578;23.416;2023-02-21T10:28:07;93758.38;;;22.50;22.34
33151;BME280;19508;42.578;23.416;2023-02-21T10:30:35;93756.13;;;23.11;21.34
33151;BME280;19508;42.578;23.416;2023-02-21T10:33:02;93756.06;;;22.99;21.62
33151;BME280;19508;42.578;23.416;2023-02-21T10:35:33;93761.69;;;22.17;22.84
33151;BME280;19508;42.578;23.416;2023-02-21T10:38:00;93751.41;;;21.97;22.66
33151;BME280;19508;42.578;23.416;2023-02-21T10:40:36;93738.56;;;21.72;23.82
33151;BME280;19508;42.578;23.416;2023-02-21T10:43:24;93743.09;;;21.50;23.55
33151;BME280;19508;42.578;23.416;2023-02-21T10:48:37;93740.81;;;21.18;22.70
33151;BME280;19508;42.578;23.416;2023-02-21T10:51:16;93733.47;;;22.17;21.76
33151;BME280;19508;42.578;23.416;2023-02-21T10:53:52;93727.69;;;22.01;22.63
33151;BME280;19508;42.578;23.416;2023-02-21T10:56:22;93727.13;;;22.63;21.91
33151;BME280;19508;42.578;23.416;2023-02-21T10:58:58;93722.16;;;22.65;20.99
33151;BME280;19508;42.578;23.416;2023-02-21T11:03:52;93703.34;;;23.68;20.30
33151;BME280;19508;42.578;23.416;2023-02-21T11:06:36;93694.50;;;24.08;20.24
33151;BME280;19508;42.578;23.416;2023-02-21T11:11:59;93696.59;;;24.23;19.96
33151;BME280;19508;42.578;23.416;2023-02-21T11:14:25;93682.44;;;24.00;19.15
33151;BME280;19508;42.578;23.416;2023-02-21T11:19:55;93676.59;;;23.35;20.21
33151;BME280;19508;42.578;23.416;2023-02-21T11:24:58;93668.56;;;21.83;22.18
33151;BME280;19508;42.578;23.416;2023-02-21T11:27:25;93664.34;;;22.62;21.70
33151;BME280;19508;42.578;23.416;2023-02-21T11:29:52;93658.31;;;22.98;21.75
33151;BME280;19508;42.578;23.416;2023-02-21T11:32:25;93662.22;;;22.97;21.78
33151;BME280;19508;42.578;23.416;2023-02-21T11:34:59;93653.84;;;23.14;20.36
33151;BME280;19508;42.578;23.416;2023-02-21T11:37:26;93658.00;;;22.70;20.00
33151;BME280;19508;42.578;23.416;2023-02-21T11:39:53;93651.09;;;22.43;20.86
33151;BME280;19508;42.578;23.416;2023-02-21T11:45:08;93643.75;;;21.88;21.55
33151;BME280;19508;42.578;23.416;2023-02-21T11:47:41;93640.13;;;21.49;21.42
33151;BME280;19508;42.578;23.416;2023-02-21T11:53:12;93630.84;;;22.77;20.95
33151;BME280;19508;42.578;23.416;2023-02-21T11:55:41;93630.78;;;22.35;20.91
33151;BME280;19508;42.578;23.416;2023-02-21T11:58:24;93626.47;;;22.55;21.04
33151;BME280;19508;42.578;23.416;2023-02-21T12:01:02;93617.03;;;22.44;21.38
33151;BME280;19508;42.578;23.416;2023-02-21T12:03:54;93612.69;;;22.43;21.14
33151;BME280;19508;42.578;23.416;2023-02-21T12:06:52;93617.66;;;22.70;20.92
33151;BME280;19508;42.578;23.416;2023-02-21T12:12:36;93602.53;;;22.64;21.54
33151;BME280;19508;42.578;23.416;2023-02-21T12:29:17;93560.97;;;24.99;18.60
33151;BME280;19508;42.578;23.416;2023-02-21T12:34:56;93575.56;;;24.47;19.15
33151;BME280;19508;42.578;23.416;2023-02-21T12:37:52;93554.81;;;24.90;18.45
33151;BME280;19508;42.578;23.416;2023-02-21T12:40:31;93559.50;;;24.13;19.10
33151;BME280;19508;42.578;23.416;2023-02-21T12:43:31;93562.91;;;25.39;19.08
33151;BME280;19508;42.578;23.416;2023-02-21T12:48:48;93554.16;;;26.12;17.84
33151;BME280;19508;42.578;23.416;2023-02-21T12:51:17;93550.78;;;26.89;16.76
33151;BME280;19508;42.578;23.416;2023-02-21T12:53:56;93548.81;;;26.20;17.19
33151;BME280;19508;42.578;23.416;2023-02-21T12:56:34;93545.59;;;27.04;17.30
33151;BME280;19508;42.578;23.416;2023-02-21T12:59:20;93539.72;;;26.35;17.12
33151;BME280;19508;42.578;23.416;2023-02-21T13:01:54;93544.88;;;26.52;17.27
33151;BME280;19508;42.578;23.416;2023-02-21T13:09:55;93542.78;;;25.98;17.33
33151;BME280;19508;42.578;23.416;2023-02-21T13:12:39;93542.97;;;25.46;17.89
33151;BME280;19508;42.578;23.416;2023-02-21T13:15:13;93533.88;;;25.14;17.80
33151;BME280;19508;42.578;23.416;2023-02-21T13:17:41;93530.47;;;25.48;18.07
33151;BME280;19508;42.578;23.416;2023-02-21T13:20:14;93527.09;;;25.71;17.95
33151;BME280;19508;42.578;23.416;2023-02-21T13:28:55;93519.31;;;27.98;16.40
33151;BME280;19508;42.578;23.416;2023-02-21T13:31:25;93514.16;;;27.96;16.82
33151;BME280;19508;42.578;23.416;2023-02-21T13:33:54;93511.13;;;28.54;15.23
33151;BME280;19508;42.578;23.416;2023-02-21T13:36:28;93505.66;;;29.52;14.94
33151;BME280;19508;42.578;23.416;2023-02-21T13:39:14;93498.16;;;29.22;15.03
33151;BME280;19508;42.578;23.416;2023-02-21T13:41:44;93502.25;;;29.35;15.01
33151;BME280;19508;42.578;23.416;2023-02-21T13:44:21;93494.13;;;29.16;14.68
33151;BME280;19508;42.578;23.416;2023-02-21T14:05:19;93482.34;;;31.39;13.25
33151;BME280;19508;42.578;23.416;2023-02-21T14:07:47;93491.97;;;31.73;12.94
33151;BME280;19508;42.578;23.416;2023-02-21T14:10:23;93488.28;;;30.57;13.12
33151;BME280;19508;42.578;23.416;2023-02-21T14:13:00;93488.72;;;30.59;13.32
33151;BME280;19508;42.578;23.416;2023-02-21T14:15:41;93487.19;;;29.33;14.18
33151;BME280;19508;42.578;23.416;2023-02-21T14:18:27;93484.22;;;29.15;14.22
33151;BME280;19508;42.578;23.416;2023-02-21T14:20:55;93483.22;;;28.70;14.65
33151;BME280;19508;42.578;23.416;2023-02-21T14:23:24;93487.03;;;28.58;14.70
33151;BME280;19508;42.578;23.416;2023-02-21T14:26:00;93485.41;;;27.78;15.42
33151;BME280;19508;42.578;23.416;2023-02-21T14:31:14;93468.84;;;30.02;14.23
33151;BME280;19508;42.578;23.416;2023-02-21T14:33:39;93466.19;;;30.72;13.45
33151;BME280;19508;42.578;23.416;2023-02-21T14:36:07;93480.28;;;29.49;14.15
33151;BME280;19508;42.578;23.416;2023-02-21T14:38:40;93484.44;;;27.05;15.49
33151;BME280;19508;42.578;23.416;2023-02-21T14:49:33;93482.34;;;21.86;20.84
33151;BME280;19508;42.578;23.416;2023-02-21T15:03:29;93488.81;;;19.19;24.32
33151;BME280;19508;42.578;23.416;2023-02-21T15:06:04;93493.78;;;18.85;25.06
33151;BME280;19508;42.578;23.416;2023-02-21T15:08:40;93493.44;;;18.56;25.45
33151;BME280;19508;42.578;23.416;2023-02-21T15:13:45;93496.19;;;17.97;26.67
33151;BME280;19508;42.578;23.416;2023-02-21T15:16:12;93497.03;;;17.70;27.26
33151;BME280;19508;42.578;23.416;2023-02-21T15:18:40;93496.03;;;17.39;28.50
33151;BME280;19508;42.578;23.416;2023-02-21T15:23:35;93501.47;;;16.84;29.86
33151;BME280;19508;42.578;23.416;2023-02-21T15:28:40;93505.69;;;16.25;30.99
33151;BME280;19508;42.578;23.416;2023-02-21T15:31:08;93505.13;;;15.90;31.68
33151;BME280;19508;42.578;23.416;2023-02-21T15:33:36;93505.50;;;15.65;32.35
33151;BME280;19508;42.578;23.416;2023-02-21T15:38:41;93512.16;;;15.06;33.58
33151;BME280;19508;42.578;23.416;2023-02-21T15:41:38;93513.53;;;14.79;34.02
33151;BME280;19508;42.578;23.416;2023-02-21T15:44:23;93530.84;;;14.54;34.73
33151;BME280;19508;42.578;23.416;2023-02-21T15:47:03;93522.59;;;14.30;35.22
33151;BME280;19508;42.578;23.416;2023-02-21T15:49:37;93528.19;;;14.10;35.13
33151;BME280;19508;42.578;23.416;2023-02-21T15:52:04;93522.88;;;13.95;35.06
33151;BME280;19508;42.578;23.416;2023-02-21T15:54:34;93522.94;;;13.85;35.25
33151;BME280;19508;42.578;23.416;2023-02-21T15:59:36;93521.50;;;13.48;35.85
33151;BME280;19508;42.578;23.416;2023-02-21T16:04:44;93527.84;;;13.28;36.04
33151;BME280;19508;42.578;23.416;2023-02-21T16:09:49;93529.50;;;12.98;35.61